Chesterfield, New Hampshire
Current Conditions -  °F | °C
As of 4:55 AM on Sunday 26 Oct 2014 (Local Time) from KEEN Reporting Station
Clear Clear  
Wind Chill: 38°   Ceiling: Unl
Heat Index: 43°   Visibility: 4mi
Dew Point: 36°   Wind: 8mph
Humidity: 76%   Direction: 210°SSW
Pressure: 29.45"   Gusts: NA
Location:  42.89°N, 72.47°W
Report Text: KEEN 260855Z AUTO 21007KT 4SM CLR 06/02 A2945 RMK AO1 57010
Loading
Personal Weather Stations






























Interactive Weather Map
Tropical Storm Tracking
New forecast layout! Learn more

10-Day Weather Forecast

Advertisements
Track Severe Weather on mobile